Time;durP1;ratioP1;P1;durP2;ratioP2;P2;SDS_P1;SDS_P2;PMS_P1;PMS_P2;Temp;Humidity;BMP_temperature;BMP_pressure;BME280_temperature;BME280_humidity;BME280_pressure;Samples;Min_cycle;Max_cycle;Signal;HPM_P1;HPM_P2
2022/02/28 00:01:07;;;;;;;1.40;1.20;;;0.80;98.00;;;;;;5095453;28;20492;-67
2022/02/28 00:03:34;;;;;;;4.67;2.43;;;0.80;98.00;;;;;;5095083;28;20490;-67
2022/02/28 00:06:03;;;;;;;1.20;1.10;;;0.90;98.00;;;;;;5077533;28;20455;-67
2022/02/28 00:08:30;;;;;;;1.57;1.37;;;0.90;98.00;;;;;;5095431;28;20492;-67
2022/02/28 00:10:58;;;;;;;1.20;1.00;;;0.70;98.00;;;;;;5095389;28;21000;-67
2022/02/28 00:13:25;;;;;;;1.37;1.33;;;0.80;98.00;;;;;;5095322;28;20482;-67
2022/02/28 00:15:52;;;;;;;1.73;1.43;;;0.60;98.00;;;;;;5095197;28;20490;-67
2022/02/28 00:18:20;;;;;;;1.70;1.37;;;0.70;98.00;;;;;;5094820;28;20549;-67
2022/02/28 00:20:47;;;;;;;2.00;1.93;;;0.70;98.00;;;;;;5095064;28;20499;-67
2022/02/28 00:23:14;;;;;;;2.53;1.50;;;0.60;98.00;;;;;;5094740;28;20466;-67
2022/02/28 00:25:41;;;;;;;1.20;1.10;;;0.60;98.00;;;;;;5094792;28;20494;-67
2022/02/28 00:28:09;;;;;;;1.63;1.60;;;0.70;98.00;;;;;;5094735;28;20544;-67
2022/02/28 00:30:37;;;;;;;1.63;1.53;;;0.70;98.00;;;;;;5094514;28;20516;-67
2022/02/28 00:33:05;;;;;;;1.53;1.20;;;0.80;98.00;;;;;;5093105;28;20487;-67
2022/02/28 00:35:33;;;;;;;2.13;1.97;;;0.70;98.00;;;;;;5094607;28;20673;-67
2022/02/28 00:38:00;;;;;;;1.20;1.00;;;0.70;98.00;;;;;;5094737;28;20887;-67
2022/02/28 00:40:27;;;;;;;2.23;1.40;;;0.70;98.00;;;;;;5094604;28;20525;-67
2022/02/28 00:42:55;;;;;;;1.27;1.23;;;0.70;98.00;;;;;;5094683;28;20834;-67
2022/02/28 00:45:22;;;;;;;1.20;1.00;;;0.60;98.00;;;;;;5094516;28;20944;-67
2022/02/28 00:47:49;;;;;;;2.17;1.50;;;0.60;98.00;;;;;;5094565;28;20459;-67
2022/02/28 00:50:16;;;;;;;1.20;1.10;;;0.70;98.00;;;;;;5094650;28;20894;-67
2022/02/28 00:52:44;;;;;;;2.37;1.43;;;0.70;98.00;;;;;;5094555;28;20452;-67
2022/02/28 00:55:14;;;;;;;2.13;1.77;;;0.60;98.00;;;;;;5094533;28;20933;-67
2022/02/28 00:57:41;;;;;;;1.30;1.10;;;0.70;98.00;;;;;;5094159;28;20499;-67
2022/02/28 01:00:12;;;;;;;1.67;1.57;;;0.80;98.00;;;;;;5092946;28;20479;-67
2022/02/28 01:02:40;;;;;;;1.33;1.27;;;0.70;98.00;;;;;;5094469;28;20463;-67
2022/02/28 01:05:11;;;;;;;1.30;1.20;;;0.70;98.00;;;;;;5093740;28;21018;-67
2022/02/28 01:07:38;;;;;;;1.20;1.17;;;0.60;98.00;;;;;;5094113;28;20490;-67
2022/02/28 01:10:08;;;;;;;1.83;1.67;;;0.70;98.00;;;;;;5093115;28;20487;-67
2022/02/28 01:12:35;;;;;;;2.50;1.63;;;0.80;98.00;;;;;;5093881;28;20494;-67
2022/02/28 01:15:03;;;;;;;2.43;1.80;;;0.70;98.00;;;;;;5093616;28;20516;-67
2022/02/28 01:17:30;;;;;;;1.20;1.13;;;0.60;98.00;;;;;;5093948;28;20493;-67
2022/02/28 01:19:58;;;;;;;1.33;1.33;;;0.70;98.00;;;;;;5093501;28;20518;-67
2022/02/28 01:22:29;;;;;;;1.63;1.40;;;0.70;98.00;;;;;;5093563;28;20488;-67
2022/02/28 01:24:56;;;;;;;1.20;1.20;;;0.70;98.00;;;;;;5093841;28;20879;-67
2022/02/28 01:27:25;;;;;;;2.40;1.50;;;0.60;98.00;;;;;;5093653;28;20501;-67
2022/02/28 01:29:52;;;;;;;1.50;1.37;;;0.70;98.00;;;;;;5093674;28;20449;-67
2022/02/28 01:32:19;;;;;;;1.70;1.53;;;0.70;98.00;;;;;;5093657;28;21025;-67
2022/02/28 01:34:46;;;;;;;1.30;1.10;;;0.90;98.00;;;;;;5093707;28;21012;-67
2022/02/28 01:37:15;;;;;;;3.00;2.83;;;0.80;98.00;;;;;;5093484;28;20456;-67
2022/02/28 01:39:44;;;;;;;2.90;2.70;;;0.90;98.00;;;;;;5093511;28;20564;-67
2022/02/28 01:42:12;;;;;;;1.97;1.87;;;0.90;98.00;;;;;;5093573;28;20462;-67
2022/02/28 01:44:40;;;;;;;1.20;1.10;;;1.00;98.00;;;;;;5093569;28;20507;-67
2022/02/28 01:47:10;;;;;;;1.53;1.43;;;1.00;98.00;;;;;;5093448;28;20494;-67
2022/02/28 01:49:37;;;;;;;1.23;1.20;;;1.00;98.00;;;;;;5093466;28;20462;-67
2022/02/28 01:52:05;;;;;;;1.20;1.00;;;0.80;98.00;;;;;;5093687;28;20491;-67
2022/02/28 01:54:32;;;;;;;1.73;1.63;;;0.70;98.00;;;;;;5093346;28;20988;-67
2022/02/28 01:56:59;;;;;;;1.90;1.80;;;0.60;98.00;;;;;;5093162;28;21050;-67
2022/02/28 01:59:26;;;;;;;1.20;1.13;;;0.60;98.00;;;;;;5093194;28;20479;-67
2022/02/28 02:01:54;;;;;;;1.77;1.70;;;0.60;98.00;;;;;;5092790;28;20462;-66
2022/02/28 02:04:23;;;;;;;1.20;1.20;;;0.40;98.00;;;;;;5093078;28;20508;-67
2022/02/28 02:06:50;;;;;;;1.40;1.30;;;0.30;98.00;;;;;;5092709;28;21038;-67
2022/02/28 02:09:17;;;;;;;1.80;1.60;;;0.30;98.00;;;;;;5092872;28;20864;-67
2022/02/28 02:11:45;;;;;;;1.83;1.73;;;0.30;98.00;;;;;;5092392;28;20557;-67
2022/02/28 02:14:13;;;;;;;2.60;1.73;;;0.30;98.00;;;;;;5092751;28;20872;-67
2022/02/28 02:16:41;;;;;;;1.20;1.20;;;0.20;98.00;;;;;;5089500;28;20485;-67
2022/02/28 02:19:09;;;;;;;1.30;1.23;;;0.30;98.00;;;;;;5092644;28;20491;-67
2022/02/28 02:21:38;;;;;;;2.03;1.77;;;0.20;98.00;;;;;;5092578;28;20493;-67
2022/02/28 02:24:05;;;;;;;1.60;1.50;;;0.00;98.00;;;;;;5092753;28;20571;-67
2022/02/28 02:26:32;;;;;;;3.70;2.20;;;0.00;98.00;;;;;;5092587;28;20950;-67
2022/02/28 02:28:59;;;;;;;1.47;1.40;;;0.00;98.00;;;;;;5092543;28;20487;-67
2022/02/28 02:31:29;;;;;;;1.97;1.40;;;-0.10;98.00;;;;;;5092507;28;20489;-67
2022/02/28 02:33:56;;;;;;;1.80;1.50;;;-0.20;98.00;;;;;;5092620;28;20487;-67
2022/02/28 02:36:23;;;;;;;1.60;1.60;;;-0.30;98.00;;;;;;5092688;28;20556;-67
2022/02/28 02:38:52;;;;;;;2.07;1.63;;;-0.40;98.00;;;;;;5092378;28;20454;-67
2022/02/28 02:41:23;;;;;;;1.70;1.60;;;-0.40;98.00;;;;;;5092481;28;20820;-67
2022/02/28 02:43:50;;;;;;;1.67;1.60;;;-0.50;98.00;;;;;;5092250;28;20461;-67
2022/02/28 02:46:17;;;;;;;1.30;1.30;;;-0.60;98.00;;;;;;5092590;28;20485;-67
2022/02/28 02:48:44;;;;;;;1.23;1.10;;;-0.40;98.00;;;;;;5092251;28;20811;-67
2022/02/28 02:51:12;;;;;;;1.40;1.40;;;-0.50;98.00;;;;;;5092576;28;20876;-67
2022/02/28 02:53:40;;;;;;;3.63;1.77;;;-0.40;98.00;;;;;;5092167;28;20462;-67
2022/02/28 02:56:08;;;;;;;1.30;1.30;;;-0.30;98.00;;;;;;5092234;28;20454;-67
2022/02/28 02:58:36;;;;;;;2.30;1.30;;;-0.30;98.00;;;;;;5091824;28;20505;-67
2022/02/28 03:01:03;;;;;;;1.20;1.10;;;-0.30;98.00;;;;;;5092099;28;20538;-67
2022/02/28 03:03:30;;;;;;;1.53;1.47;;;-0.30;98.00;;;;;;5091885;28;20450;-67
2022/02/28 03:05:57;;;;;;;1.30;1.30;;;-0.40;98.00;;;;;;5091998;28;20487;-67
2022/02/28 03:08:24;;;;;;;3.10;2.20;;;-0.30;98.00;;;;;;5091714;28;20499;-67
2022/02/28 03:10:51;;;;;;;1.53;1.47;;;-0.40;98.00;;;;;;5091952;28;20515;-67
2022/02/28 03:13:22;;;;;;;1.80;1.43;;;-0.50;98.00;;;;;;5091636;28;20994;-67
2022/02/28 03:15:49;;;;;;;1.20;1.10;;;-0.40;98.00;;;;;;5091700;28;20454;-67
2022/02/28 03:18:16;;;;;;;1.53;1.43;;;-0.30;98.00;;;;;;5091705;28;20494;-67
2022/02/28 03:20:43;;;;;;;1.60;1.20;;;-0.30;98.00;;;;;;5091881;28;20513;-67
2022/02/28 03:23:10;;;;;;;1.23;1.10;;;-0.30;98.00;;;;;;5091717;28;20500;-67
2022/02/28 03:25:37;;;;;;;2.60;2.40;;;-0.30;98.00;;;;;;5091735;28;20516;-66
2022/02/28 03:28:04;;;;;;;1.20;1.20;;;-0.20;98.00;;;;;;5091786;28;20462;-67
2022/02/28 03:30:33;;;;;;;2.30;2.10;;;-0.30;98.00;;;;;;5091691;28;20504;-67
2022/02/28 03:33:00;;;;;;;1.17;1.00;;;-0.30;98.00;;;;;;5092165;28;20459;-67
2022/02/28 03:35:27;;;;;;;1.50;1.43;;;-0.30;98.00;;;;;;5096017;28;20459;-67
2022/02/28 03:37:54;;;;;;;1.30;1.20;;;-0.40;98.00;;;;;;5096117;28;20871;-66
2022/02/28 03:40:21;;;;;;;4.17;2.57;;;-0.40;98.00;;;;;;5095855;28;20516;-67
2022/02/28 03:42:48;;;;;;;3.83;2.27;;;-0.40;98.00;;;;;;5095782;28;20494;-67
2022/02/28 03:45:15;;;;;;;8.20;2.70;;;-0.30;98.00;;;;;;5095488;28;21031;-66
2022/02/28 03:47:43;;;;;;;5.10;2.53;;;-0.10;98.00;;;;;;5095712;28;20455;-67
2022/02/28 03:50:10;;;;;;;1.10;1.00;;;-0.20;98.00;;;;;;5095538;28;20504;-66
2022/02/28 03:52:38;;;;;;;1.40;1.27;;;-0.20;98.00;;;;;;5095545;28;20867;-67
2022/02/28 03:55:05;;;;;;;1.20;1.00;;;-0.30;98.00;;;;;;5095376;28;20508;-67
2022/02/28 03:57:32;;;;;;;1.40;1.20;;;-0.40;98.00;;;;;;5095450;28;20503;-66
2022/02/28 03:59:59;;;;;;;1.47;1.47;;;-0.40;98.00;;;;;;5095124;28;20483;-66
2022/02/28 04:02:28;;;;;;;1.40;1.30;;;-0.40;98.00;;;;;;5095488;28;21018;-67
2022/02/28 04:04:56;;;;;;;1.40;1.37;;;-0.30;98.00;;;;;;5095169;28;20455;-66
2022/02/28 04:07:23;;;;;;;2.13;1.40;;;-0.20;98.00;;;;;;5095209;28;20490;-67
2022/02/28 04:09:51;;;;;;;1.43;1.20;;;0.00;98.00;;;;;;5095120;28;20535;-66
2022/02/28 04:12:18;;;;;;;1.17;1.00;;;-0.10;98.00;;;;;;5094815;28;20455;-66
2022/02/28 04:14:45;;;;;;;4.20;2.03;;;-0.30;98.00;;;;;;5094415;28;20493;-67
2022/02/28 04:17:14;;;;;;;3.40;1.97;;;-0.50;98.00;;;;;;5094514;28;20498;-66
2022/02/28 04:19:41;;;;;;;2.23;1.50;;;-0.50;98.00;;;;;;5094725;28;20930;-67
2022/02/28 04:22:09;;;;;;;1.30;1.27;;;-0.60;98.00;;;;;;5095025;28;20500;-67
2022/02/28 04:24:37;;;;;;;3.17;2.33;;;-0.80;98.00;;;;;;5095028;28;20545;-67
2022/02/28 04:27:04;;;;;;;1.20;1.10;;;-0.70;98.00;;;;;;5095114;28;20493;-67
2022/02/28 04:29:31;;;;;;;1.60;1.43;;;-0.90;98.00;;;;;;5095231;28;20466;-66
2022/02/28 04:32:00;;;;;;;1.20;1.10;;;-0.90;98.00;;;;;;5095260;28;20479;-66
2022/02/28 04:34:29;;;;;;;1.20;1.20;;;-0.70;98.00;;;;;;5094714;28;20820;-67
2022/02/28 04:36:56;;;;;;;2.60;1.50;;;-0.80;98.00;;;;;;5094641;28;20545;-67
2022/02/28 04:39:24;;;;;;;1.20;1.03;;;-0.80;98.00;;;;;;5094545;28;20520;-66
2022/02/28 04:41:51;;;;;;;2.40;1.67;;;-0.80;98.00;;;;;;5094409;28;20494;-66
2022/02/28 04:44:18;;;;;;;2.50;2.03;;;-0.90;98.00;;;;;;5094084;28;20449;-66
2022/02/28 04:46:45;;;;;;;2.13;1.50;;;-0.80;98.00;;;;;;5093621;28;20495;-67
2022/02/28 04:49:12;;;;;;;1.87;1.70;;;-0.80;98.00;;;;;;5094530;28;20493;-67
2022/02/28 04:51:39;;;;;;;2.70;2.13;;;-0.70;98.00;;;;;;5094401;28;20453;-67
2022/02/28 04:54:06;;;;;;;1.97;1.87;;;-0.60;98.00;;;;;;5094509;28;20842;-66
2022/02/28 04:56:34;;;;;;;1.50;1.30;;;-0.60;98.00;;;;;;5094226;28;20496;-67
2022/02/28 04:59:02;;;;;;;1.30;1.30;;;-0.50;98.00;;;;;;5094699;28;20479;-67
2022/02/28 05:01:29;;;;;;;1.13;1.00;;;-0.40;98.00;;;;;;5094249;28;21008;-67
2022/02/28 05:03:56;;;;;;;1.57;1.50;;;-0.50;98.00;;;;;;5094156;28;20489;-66
2022/02/28 05:06:24;;;;;;;1.20;1.20;;;-0.40;98.00;;;;;;5094221;28;20457;-67
2022/02/28 05:08:51;;;;;;;1.10;1.00;;;-0.70;98.00;;;;;;5093618;28;20463;-67
2022/02/28 05:11:18;;;;;;;1.87;1.83;;;-0.70;98.00;;;;;;5094206;28;20449;-66
2022/02/28 05:13:46;;;;;;;1.20;1.20;;;-0.80;98.00;;;;;;5093997;28;20461;-66
2022/02/28 05:16:13;;;;;;;1.30;1.30;;;-0.90;98.00;;;;;;5094180;28;20485;-66
2022/02/28 05:18:41;;;;;;;1.20;1.00;;;-1.00;98.00;;;;;;5094254;28;20462;-67
2022/02/28 05:21:08;;;;;;;1.63;1.53;;;-1.10;98.00;;;;;;5094204;28;20517;-66
2022/02/28 05:23:35;;;;;;;1.70;1.40;;;-1.10;98.00;;;;;;5093726;28;20963;-67
2022/02/28 05:26:04;;;;;;;2.00;1.43;;;-1.10;98.00;;;;;;5093517;28;20991;-66
2022/02/28 05:28:35;;;;;;;1.77;1.67;;;-1.00;98.00;;;;;;5093595;28;20469;-67
2022/02/28 05:31:03;;;;;;;2.07;1.50;;;-1.00;98.00;;;;;;5093528;28;20464;-67
2022/02/28 05:33:30;;;;;;;1.77;1.67;;;-0.90;98.00;;;;;;5093615;28;20503;-66
2022/02/28 05:35:57;;;;;;;5.00;1.97;;;-0.90;98.00;;;;;;5093480;28;20566;-66
2022/02/28 05:38:24;;;;;;;1.20;1.10;;;-1.00;98.00;;;;;;5093301;28;20539;-67
2022/02/28 05:40:53;;;;;;;2.40;1.63;;;-0.90;98.00;;;;;;5093425;28;20583;-66
2022/02/28 05:43:20;;;;;;;4.60;1.40;;;-1.10;98.00;;;;;;5093388;28;20955;-67
2022/02/28 05:45:47;;;;;;;1.55;1.40;;;-1.10;98.00;;;;;;5093384;28;20511;-67
2022/02/28 05:48:16;;;;;;;1.50;1.40;;;-1.20;98.00;;;;;;5093365;28;20350;-67
2022/02/28 05:50:43;;;;;;;1.60;1.40;;;-1.30;98.00;;;;;;5093269;28;20487;-67
2022/02/28 05:53:10;;;;;;;1.57;1.33;;;-1.20;98.00;;;;;;5093285;28;20458;-67
2022/02/28 05:55:38;;;;;;;1.20;1.00;;;-1.20;98.00;;;;;;5093111;28;20454;-66
2022/02/28 05:58:05;;;;;;;1.50;1.23;;;-1.20;98.00;;;;;;5092814;28;20466;-67
2022/02/28 06:00:33;;;;;;;4.57;1.57;;;-1.10;98.00;;;;;;5093296;28;20947;-67
2022/02/28 06:03:00;;;;;;;2.23;1.90;;;-1.20;98.00;;;;;;5093060;28;20516;-67
2022/02/28 06:05:32;;;;;;;1.20;1.10;;;-1.20;98.00;;;;;;5092978;28;20517;-67
2022/02/28 06:07:59;;;;;;;1.40;1.23;;;-1.10;98.00;;;;;;5092070;28;20456;-67
2022/02/28 06:10:26;;;;;;;1.60;1.33;;;-1.10;98.00;;;;;;5093014;28;20937;-67
2022/02/28 06:12:53;;;;;;;1.20;1.20;;;-1.00;98.00;;;;;;5093256;28;20487;-67
2022/02/28 06:15:20;;;;;;;1.20;1.03;;;-0.90;98.00;;;;;;5092875;28;20485;-67
2022/02/28 06:17:47;;;;;;;2.03;1.90;;;-0.90;98.00;;;;;;5093015;28;20498;-67
2022/02/28 06:20:14;;;;;;;3.10;2.10;;;-0.80;98.00;;;;;;5091314;28;20488;-67
2022/02/28 06:22:44;;;;;;;1.40;1.23;;;-0.80;98.00;;;;;;5092502;28;20511;-67
2022/02/28 06:25:11;;;;;;;1.20;1.10;;;-0.80;98.00;;;;;;5092537;28;20489;-67
2022/02/28 06:27:40;;;;;;;1.20;1.10;;;-0.80;98.00;;;;;;5092386;28;20530;-67
2022/02/28 06:30:09;;;;;;;1.53;1.37;;;-0.70;98.00;;;;;;5091318;28;20469;-67
2022/02/28 06:32:36;;;;;;;1.20;1.20;;;-0.70;98.00;;;;;;5092479;28;20459;-66
2022/02/28 06:35:05;;;;;;;2.50;2.07;;;-0.90;98.00;;;;;;5092424;28;20947;-67
2022/02/28 06:37:32;;;;;;;1.87;1.80;;;-0.90;98.00;;;;;;5092399;28;20500;-67
2022/02/28 06:40:00;;;;;;;2.37;1.60;;;-1.00;98.00;;;;;;5092252;28;21156;-67
2022/02/28 06:42:27;;;;;;;1.80;1.80;;;-1.10;98.00;;;;;;5092399;28;20519;-67
2022/02/28 06:44:54;;;;;;;1.67;1.65;;;-1.00;98.00;;;;;;5092331;28;20520;-67
2022/02/28 06:47:21;;;;;;;1.47;1.40;;;-0.90;98.00;;;;;;5092736;28;20232;-67
2022/02/28 06:49:48;;;;;;;3.83;2.13;;;-0.90;98.00;;;;;;5092329;28;20533;-67
2022/02/28 06:52:17;;;;;;;1.70;1.40;;;-1.00;98.00;;;;;;5092417;28;20453;-67
2022/02/28 06:54:44;;;;;;;3.20;3.00;;;-1.00;98.00;;;;;;5092273;28;20458;-67
2022/02/28 06:57:12;;;;;;;1.20;1.10;;;-1.10;98.00;;;;;;5092323;28;20519;-67
2022/02/28 06:59:39;;;;;;;1.20;1.10;;;-1.20;98.00;;;;;;5092153;28;20456;-67
2022/02/28 07:02:07;;;;;;;1.33;1.23;;;-1.10;98.00;;;;;;5092264;28;20488;-67
2022/02/28 07:04:34;;;;;;;3.30;2.37;;;-1.10;98.00;;;;;;5092221;28;20237;-67
2022/02/28 07:07:01;;;;;;;2.03;1.63;;;-1.20;98.00;;;;;;5092186;28;20876;-67
2022/02/28 07:09:29;;;;;;;1.30;1.20;;;-1.10;98.00;;;;;;5091002;28;20454;-67
2022/02/28 07:11:56;;;;;;;1.20;1.00;;;-0.90;98.00;;;;;;5092009;28;20453;-67
2022/02/28 07:14:25;;;;;;;1.30;1.20;;;-0.90;98.00;;;;;;5090395;28;20198;-67
2022/02/28 07:16:53;;;;;;;1.47;1.43;;;-0.80;98.00;;;;;;5091723;28;20458;-66
2022/02/28 07:19:20;;;;;;;1.40;1.30;;;-0.80;98.00;;;;;;5091667;28;20485;-66
2022/02/28 07:21:47;;;;;;;1.20;1.10;;;-0.80;98.00;;;;;;5091511;28;20541;-66
2022/02/28 07:24:14;;;;;;;2.90;1.70;;;-0.70;98.00;;;;;;5091861;28;20254;-66
2022/02/28 07:26:41;;;;;;;2.20;1.73;;;-0.70;98.00;;;;;;5091658;28;20495;-66
2022/02/28 07:29:08;;;;;;;1.83;1.77;;;-0.50;98.00;;;;;;5091862;28;20609;-66
2022/02/28 07:31:36;;;;;;;2.63;1.77;;;-0.30;98.00;;;;;;5091485;28;20492;-66
2022/02/28 07:34:04;;;;;;;1.37;1.30;;;-0.20;98.00;;;;;;5091540;28;20485;-67
2022/02/28 07:36:32;;;;;;;1.20;1.20;;;-0.10;98.00;;;;;;5090344;28;20855;-67
2022/02/28 07:38:58;;;;;;;2.37;1.80;;;0.00;98.00;;;;;;5091318;28;20885;-66
2022/02/28 07:41:26;;;;;;;1.80;1.20;;;0.00;98.00;;;;;;5091741;28;20890;-66
2022/02/28 07:43:53;;;;;;;1.60;1.53;;;0.10;98.00;;;;;;5091554;28;20793;-66
2022/02/28 07:46:20;;;;;;;2.23;2.03;;;0.20;98.00;;;;;;5091802;28;20860;-66
2022/02/28 07:48:48;;;;;;;3.27;1.60;;;0.20;98.00;;;;;;5091511;28;20516;-66
2022/02/28 07:51:16;;;;;;;2.40;2.10;;;0.30;98.00;;;;;;5091645;28;20462;-67
2022/02/28 07:53:43;;;;;;;2.07;1.73;;;0.30;98.00;;;;;;5091523;28;20479;-66
2022/02/28 07:56:10;;;;;;;1.87;1.80;;;0.40;98.00;;;;;;5091800;28;20454;-66
2022/02/28 07:58:38;;;;;;;3.43;2.83;;;0.40;98.00;;;;;;5091141;28;20507;-66
2022/02/28 08:01:05;;;;;;;3.03;2.13;;;0.40;98.00;;;;;;5091256;28;20569;-67
2022/02/28 08:03:32;;;;;;;3.03;2.13;;;0.50;98.00;;;;;;5091341;28;20459;-66
2022/02/28 08:06:04;;;;;;;2.60;1.83;;;0.40;98.00;;;;;;5090239;28;20467;-66
2022/02/28 08:08:31;;;;;;;1.77;1.40;;;0.60;98.00;;;;;;5089986;28;20459;-66
2022/02/28 08:11:02;;;;;;;3.00;1.93;;;0.90;98.00;;;;;;5091112;28;20520;-67
2022/02/28 08:13:30;;;;;;;1.30;1.20;;;1.00;98.00;;;;;;5091389;28;20860;-66
2022/02/28 08:15:59;;;;;;;3.67;1.73;;;1.20;98.00;;;;;;5091194;28;21018;-66
2022/02/28 08:18:26;;;;;;;1.83;1.77;;;1.30;98.00;;;;;;5091294;28;20547;-66
2022/02/28 08:20:53;;;;;;;2.20;2.10;;;1.50;98.00;;;;;;5094156;28;20519;-66
2022/02/28 08:23:23;;;;;;;2.17;1.40;;;1.50;98.00;;;;;;5094994;28;20516;-66
2022/02/28 08:25:50;;;;;;;1.57;1.53;;;1.50;98.00;;;;;;5094970;28;20834;-66
2022/02/28 08:28:19;;;;;;;1.57;1.50;;;1.70;98.00;;;;;;5094976;28;20984;-67
2022/02/28 08:30:47;;;;;;;2.47;1.93;;;1.80;98.00;;;;;;5094991;28;20601;-66
2022/02/28 08:33:14;;;;;;;2.37;2.23;;;2.20;98.00;;;;;;5094993;28;20473;-66
2022/02/28 08:35:41;;;;;;;1.37;1.33;;;2.20;98.00;;;;;;5094434;28;20459;-67
2022/02/28 08:38:08;;;;;;;3.97;2.60;;;2.20;98.00;;;;;;5094820;28;20487;-66
2022/02/28 08:40:37;;;;;;;1.60;1.20;;;2.30;98.00;;;;;;5094507;28;20492;-66
2022/02/28 08:43:04;;;;;;;5.70;2.30;;;2.50;98.00;;;;;;5093640;28;20443;-66
2022/02/28 08:45:31;;;;;;;2.50;2.07;;;2.70;98.00;;;;;;5094455;28;20463;-66
2022/02/28 08:47:59;;;;;;;3.00;2.40;;;2.90;98.00;;;;;;5094861;28;20460;-66
2022/02/28 08:50:27;;;;;;;2.17;1.37;;;3.10;98.00;;;;;;5094532;28;20475;-66
2022/02/28 08:52:54;;;;;;;3.70;1.87;;;3.30;98.00;;;;;;5094371;28;20480;-66
2022/02/28 08:55:21;;;;;;;3.30;2.50;;;3.50;98.00;;;;;;5094434;28;20780;-66
2022/02/28 08:57:49;;;;;;;2.63;1.50;;;3.50;98.00;;;;;;5094150;28;20549;-66
2022/02/28 09:00:17;;;;;;;1.80;1.77;;;3.80;98.00;;;;;;5094101;28;20491;-66
2022/02/28 09:02:44;;;;;;;1.97;1.73;;;4.00;98.00;;;;;;5076069;28;20488;-66
2022/02/28 09:05:12;;;;;;;1.20;1.10;;;4.50;98.00;;;;;;5094082;28;20468;-67
2022/02/28 09:07:39;;;;;;;4.50;2.23;;;6.10;98.00;;;;;;5094230;28;20501;-67
2022/02/28 09:10:07;;;;;;;3.50;2.50;;;6.90;98.00;;;;;;5093992;28;20540;-67
2022/02/28 09:12:34;;;;;;;5.47;2.80;;;7.00;94.70;;;;;;5094128;28;20492;-67
2022/02/28 09:15:03;;;;;;;2.27;1.53;;;6.70;93.90;;;;;;5093545;28;20478;-66
2022/02/28 09:17:32;;;;;;;2.80;1.83;;;6.50;95.00;;;;;;5093964;28;20514;-68
2022/02/28 09:19:59;;;;;;;5.17;2.27;;;6.40;94.40;;;;;;5092188;28;20458;-68
2022/02/28 09:22:27;;;;;;;1.47;1.30;;;6.40;93.10;;;;;;5093468;28;20526;-67
2022/02/28 09:24:55;;;;;;;1.43;1.40;;;6.30;94.50;;;;;;5093123;28;20941;-67
2022/02/28 09:27:26;;;;;;;2.47;1.57;;;6.20;95.10;;;;;;5093189;28;20924;-66
2022/02/28 09:29:53;;;;;;;4.13;1.73;;;6.10;95.60;;;;;;5106961;28;20803;-66
2022/02/28 09:32:22;;;;;;;1.70;1.30;;;6.10;95.30;;;;;;5100584;28;20865;-66
2022/02/28 09:34:49;;;;;;;3.00;2.20;;;6.20;94.90;;;;;;5101613;28;20531;-67
2022/02/28 09:37:16;;;;;;;1.50;1.40;;;6.20;94.60;;;;;;5109474;28;20488;-66
2022/02/28 09:39:43;;;;;;;3.47;2.47;;;6.30;95.10;;;;;;5100097;28;20461;-67
2022/02/28 09:42:11;;;;;;;3.83;2.30;;;6.40;92.80;;;;;;5109636;28;20497;-66
2022/02/28 09:44:40;;;;;;;2.53;1.73;;;6.60;93.40;;;;;;5091854;28;20477;-67
2022/02/28 09:47:07;;;;;;;4.53;2.40;;;6.80;91.00;;;;;;5110037;28;20515;-68
2022/02/28 09:49:36;;;;;;;1.33;1.30;;;7.00;89.80;;;;;;5104114;28;20872;-68
2022/02/28 09:52:03;;;;;;;2.40;1.90;;;7.20;90.40;;;;;;5100379;28;20459;-67
2022/02/28 09:54:30;;;;;;;1.50;1.30;;;7.40;88.30;;;;;;5091575;28;20540;-67
2022/02/28 09:56:58;;;;;;;1.77;1.47;;;7.60;88.40;;;;;;5092112;28;20463;-67
2022/02/28 09:59:25;;;;;;;3.30;1.60;;;7.70;87.40;;;;;;5099650;28;20514;-67
2022/02/28 10:01:52;;;;;;;1.40;1.30;;;7.90;86.30;;;;;;5100640;28;20636;-68
2022/02/28 10:04:20;;;;;;;1.60;1.43;;;8.10;84.90;;;;;;5102190;28;20508;-66
2022/02/28 10:06:49;;;;;;;3.23;2.20;;;8.20;86.80;;;;;;5090469;28;20474;-67
2022/02/28 10:09:23;;;;;;;2.83;2.10;;;8.80;86.30;;;;;;5091671;28;20542;-66
2022/02/28 10:11:51;;;;;;;1.37;1.30;;;9.10;83.60;;;;;;5099748;28;20470;-66
2022/02/28 10:14:19;;;;;;;2.10;1.97;;;9.50;82.70;;;;;;5091741;28;20780;-67
2022/02/28 10:16:48;;;;;;;2.23;2.07;;;9.40;81.00;;;;;;5107796;28;20532;-66
2022/02/28 10:19:22;;;;;;;2.80;1.70;;;9.50;81.80;;;;;;5109020;28;20457;-67
2022/02/28 10:21:53;;;;;;;2.07;1.80;;;9.70;81.70;;;;;;5091888;28;21158;-67
2022/02/28 10:24:22;;;;;;;2.40;2.03;;;9.90;80.60;;;;;;5108659;28;20921;-66
2022/02/28 10:26:55;;;;;;;2.17;1.70;;;9.90;79.90;;;;;;5092466;28;20232;-67
2022/02/28 10:29:22;;;;;;;1.57;1.57;;;10.00;79.00;;;;;;5099480;28;20572;-67
2022/02/28 10:31:49;;;;;;;2.20;2.00;;;10.20;79.60;;;;;;5099403;28;20455;-67
2022/02/28 10:34:18;;;;;;;2.60;1.80;;;10.20;79.60;;;;;;5110323;28;20486;-66
2022/02/28 10:37:03;;;;;;;3.10;2.40;;;10.30;78.70;;;;;;5108649;28;21140;-69
2022/02/28 10:39:33;;;;;;;1.43;1.33;;;10.40;77.00;;;;;;5091610;28;20926;-68
2022/02/28 10:42:07;;;;;;;2.70;1.80;;;10.30;77.40;;;;;;5099989;28;20502;-67
2022/02/28 10:44:34;;;;;;;2.67;1.40;;;10.40;77.20;;;;;;5092974;28;20955;-68
2022/02/28 10:47:04;;;;;;;2.30;2.10;;;10.50;77.50;;;;;;5105566;28;20463;-67
2022/02/28 10:49:33;;;;;;;3.10;2.13;;;10.70;76.80;;;;;;5091684;28;20545;-67
2022/02/28 10:52:07;;;;;;;1.50;1.30;;;10.70;75.90;;;;;;5098879;28;20464;-68
2022/02/28 10:54:36;;;;;;;2.20;2.03;;;10.60;75.70;;;;;;5108309;28;20503;-67
2022/02/28 10:57:05;;;;;;;1.70;1.30;;;10.50;75.80;;;;;;5095862;28;20948;-68
2022/02/28 10:59:39;;;;;;;2.13;1.73;;;10.50;75.40;;;;;;5099027;28;20484;-68
2022/02/28 11:02:07;;;;;;;2.57;1.37;;;10.50;75.70;;;;;;5104861;28;20557;-67
2022/02/28 11:04:40;;;;;;;2.80;1.60;;;10.50;76.20;;;;;;5095050;28;20454;-67
2022/02/28 11:07:12;;;;;;;2.20;1.90;;;10.60;76.70;;;;;;5105707;28;20459;-68
2022/02/28 11:09:42;;;;;;;4.30;2.33;;;10.80;76.50;;;;;;5098676;28;20498;-69
2022/02/28 11:12:27;;;;;;;1.50;1.40;;;11.00;75.50;;;;;;5093310;28;20461;-68
2022/02/28 11:14:57;;;;;;;2.07;1.63;;;11.10;75.30;;;;;;5090606;28;20962;-69
2022/02/28 11:17:25;;;;;;;2.53;1.73;;;11.30;75.00;;;;;;5108822;28;20556;-68
2022/02/28 11:19:53;;;;;;;2.77;2.10;;;11.60;73.50;;;;;;5091301;28;20508;-69
2022/02/28 11:22:22;;;;;;;2.07;1.60;;;11.80;72.80;;;;;;5091623;28;20476;-68
2022/02/28 11:24:56;;;;;;;1.97;1.43;;;12.10;72.10;;;;;;5100014;28;20546;-68
2022/02/28 11:27:26;;;;;;;1.70;1.60;;;12.20;72.80;;;;;;5108393;28;20478;-68
2022/02/28 11:29:56;;;;;;;2.40;1.60;;;12.50;72.10;;;;;;5104174;28;20965;-69
2022/02/28 11:32:24;;;;;;;3.10;2.00;;;12.60;69.40;;;;;;5092053;28;20456;-68
2022/02/28 11:34:51;;;;;;;1.40;1.20;;;12.90;70.30;;;;;;5090749;28;20482;-70
2022/02/28 11:37:25;;;;;;;3.40;2.03;;;13.30;69.70;;;;;;5090217;28;20490;-70
2022/02/28 11:40:03;;;;;;;1.60;1.50;;;13.60;69.30;;;;;;5100202;28;21146;-70
2022/02/28 11:43:02;;;;;;;2.60;1.63;;;13.90;68.00;;;;;;5106016;28;20553;-71
2022/02/28 11:45:31;;;;;;;1.47;1.43;;;14.30;69.20;;;;;;5104859;28;20458;-69
2022/02/28 11:48:12;;;;;;;1.73;1.73;;;14.40;65.80;;;;;;5107245;28;20616;-69
2022/02/28 11:50:53;;;;;;;1.73;1.67;;;14.50;66.90;;;;;;5089587;28;20457;-67
2022/02/28 11:53:42;;;;;;;5.53;2.07;;;14.90;64.50;;;;;;5090680;28;20545;-67
2022/02/28 11:56:58;;;;;;;2.93;2.10;;;15.20;62.50;;;;;;5102066;28;20873;-68
2022/02/28 11:59:39;;;;;;;2.50;1.83;;;15.30;63.20;;;;;;5103192;28;20474;-71
2022/02/28 12:02:20;;;;;;;2.80;1.87;;;15.40;64.10;;;;;;5110852;28;20515;-70
2022/02/28 12:04:47;;;;;;;2.30;1.70;;;15.60;63.30;;;;;;5105053;28;21171;-68
2022/02/28 12:07:39;;;;;;;2.37;1.97;;;15.80;64.50;;;;;;5102782;28;20977;-68
2022/02/28 12:10:13;;;;;;;2.10;1.90;;;15.40;63.20;;;;;;5098723;28;20455;-68
2022/02/28 12:12:57;;;;;;;2.20;1.80;;;15.20;64.30;;;;;;5111229;28;20956;-68
2022/02/28 12:15:25;;;;;;;3.33;2.20;;;15.20;62.70;;;;;;5102854;28;21022;-69
2022/02/28 12:18:08;;;;;;;1.53;1.40;;;15.20;63.40;;;;;;5111182;28;20945;-69
2022/02/28 12:20:38;;;;;;;2.37;1.60;;;15.40;64.00;;;;;;5094602;28;20489;-68
2022/02/28 12:23:25;;;;;;;2.67;2.10;;;15.50;63.20;;;;;;5094728;28;20541;-68
2022/02/28 12:26:17;;;;;;;2.40;1.80;;;15.80;64.30;;;;;;5095020;28;20464;-67
2022/02/28 12:28:54;;;;;;;2.63;1.60;;;15.50;62.70;;;;;;5094778;28;20456;-68
2022/02/28 12:31:36;;;;;;;3.97;2.07;;;15.50;62.50;;;;;;5094668;28;20455;-68
2022/02/28 12:34:10;;;;;;;3.00;1.77;;;15.40;62.60;;;;;;5094501;28;20449;-68
2022/02/28 12:36:40;;;;;;;1.83;1.57;;;15.40;62.50;;;;;;5094835;28;20452;-68
2022/02/28 12:39:12;;;;;;;1.83;1.77;;;15.50;62.90;;;;;;5094370;28;20507;-68
2022/02/28 12:41:42;;;;;;;2.77;2.57;;;15.90;62.70;;;;;;5094599;28;20502;-69
2022/02/28 12:44:12;;;;;;;2.03;1.67;;;16.20;62.00;;;;;;5094401;28;20480;-68
2022/02/28 12:46:42;;;;;;;1.97;1.47;;;15.90;62.10;;;;;;5094738;28;20478;-67
2022/02/28 12:49:11;;;;;;;2.20;2.00;;;15.80;61.00;;;;;;5094493;28;20471;-67
2022/02/28 12:51:40;;;;;;;1.83;1.60;;;15.60;62.00;;;;;;5094567;28;20518;-70
2022/02/28 12:54:10;;;;;;;2.90;1.93;;;15.70;61.60;;;;;;5094400;28;21020;-68
2022/02/28 12:56:46;;;;;;;2.90;1.53;;;15.60;61.90;;;;;;5094357;28;20463;-67
2022/02/28 12:59:14;;;;;;;3.63;1.90;;;15.90;61.40;;;;;;5094119;28;20459;-67